createdAt,value
2023-02-09T06:41:02.448Z,101004.95
2023-02-09T06:43:32.616Z,101004.64
2023-02-09T06:46:08.711Z,100999.67
2023-02-09T06:48:38.860Z,100993.74
2023-02-09T06:51:12.484Z,100991.18
2023-02-09T06:53:41.029Z,100991.65
2023-02-09T06:56:10.351Z,100989.89
2023-02-09T06:58:42.632Z,100990.70
2023-02-09T07:01:13.443Z,100986.06
2023-02-09T07:03:45.126Z,100984.13
2023-02-09T07:06:15.386Z,100983.93
2023-02-09T07:08:47.218Z,100979.00
2023-02-09T07:11:16.686Z,100971.48
2023-02-09T07:13:46.702Z,100970.73
2023-02-09T07:16:15.409Z,100966.29
2023-02-09T07:18:47.018Z,100969.89
2023-02-09T07:21:20.174Z,100972.79
2023-02-09T07:23:49.522Z,100969.64
2023-02-09T07:26:18.653Z,100976.23
2023-02-09T07:28:47.291Z,100974.55
2023-02-09T07:31:16.678Z,100969.50
2023-02-09T07:33:48.456Z,100970.57
2023-02-09T07:36:16.927Z,100966.80
2023-02-09T07:38:45.369Z,100969.56
2023-02-09T07:41:21.500Z,100967.55
2023-02-09T07:43:51.080Z,100965.52
2023-02-09T07:46:42.023Z,100966.83
2023-02-09T07:49:11.368Z,100960.45
2023-02-09T07:51:39.717Z,100962.13
2023-02-09T07:54:10.526Z,100953.15
2023-02-09T07:56:39.183Z,100950.83
2023-02-09T07:59:09.365Z,100949.09
2023-02-09T08:01:37.623Z,100949.20
2023-02-09T08:04:06.479Z,100944.95
2023-02-09T08:06:43.149Z,100939.95
2023-02-09T08:09:30.039Z,100940.98
2023-02-09T08:12:05.731Z,100930.99
2023-02-09T08:14:40.035Z,100926.13
2023-02-09T08:17:20.336Z,100920.38
2023-02-09T08:20:00.639Z,100915.27
2023-02-09T08:22:34.628Z,100909.58
2023-02-09T08:25:06.472Z,100900.42
2023-02-09T08:27:56.590Z,100894.88
2023-02-09T08:30:25.603Z,100896.02
2023-02-09T08:32:55.588Z,100896.15
2023-02-09T08:35:24.174Z,100893.57
2023-02-09T08:37:53.971Z,100894.07
2023-02-09T08:40:22.299Z,100897.21
2023-02-09T08:42:50.851Z,100897.14
2023-02-09T08:45:19.596Z,100898.52
2023-02-09T08:47:49.092Z,100900.41
2023-02-09T08:50:18.204Z,100898.55
2023-02-09T08:52:48.250Z,100894.95
2023-02-09T08:55:16.548Z,100891.27
2023-02-09T08:57:45.534Z,100891.84
2023-02-09T09:00:20.298Z,100894.11
2023-02-09T09:02:48.655Z,100890.44
2023-02-09T09:05:35.522Z,100894.40
2023-02-09T09:08:06.561Z,100893.80
2023-02-09T09:10:54.014Z,100897.92
2023-02-09T09:13:24.617Z,100894.36
2023-02-09T09:15:54.451Z,100895.29
2023-02-09T09:21:12.723Z,100886.66
2023-02-09T09:23:41.090Z,100883.35
2023-02-09T09:26:09.568Z,100883.73
2023-02-09T09:28:37.983Z,100883.80
2023-02-09T09:31:33.721Z,100885.14
2023-02-09T09:34:04.159Z,100880.46
2023-02-09T09:36:33.076Z,100879.56
2023-02-09T09:39:25.860Z,100877.38
2023-02-09T09:41:58.167Z,100870.02
2023-02-09T09:44:44.230Z,100864.98
2023-02-09T09:47:21.030Z,100860.59
2023-02-09T09:52:38.958Z,100857.04
2023-02-09T09:55:08.355Z,100848.02
2023-02-09T09:57:38.866Z,100844.58
2023-02-09T10:00:19.712Z,100837.06
2023-02-09T10:02:48.320Z,100836.91
2023-02-09T10:05:26.521Z,100837.58
2023-02-09T10:08:11.037Z,100833.83
2023-02-09T10:11:06.376Z,100831.73
2023-02-09T10:13:56.875Z,100824.03
2023-02-09T10:16:30.955Z,100816.81
2023-02-09T10:19:04.288Z,100809.27
2023-02-09T10:21:34.912Z,100812.38
2023-02-09T10:24:15.036Z,100810.89
2023-02-09T10:26:44.413Z,100812.79
2023-02-09T10:29:13.017Z,100811.95
2023-02-09T10:31:48.962Z,100808.88
2023-02-09T10:34:19.540Z,100806.30
2023-02-09T10:36:56.611Z,100803.75
2023-02-09T10:39:34.447Z,100800.68
2023-02-09T10:42:19.596Z,100800.14
2023-02-09T10:44:50.144Z,100794.48
2023-02-09T10:47:21.333Z,100789.52
2023-02-09T10:50:11.413Z,100790.98
2023-02-09T10:53:03.372Z,100789.92
2023-02-09T10:55:52.005Z,100779.45
2023-02-09T10:58:25.070Z,100778.88
2023-02-09T11:01:08.946Z,100778.98
2023-02-09T11:03:39.156Z,100774.33
2023-02-09T11:06:18.842Z,100776.02
2023-02-09T11:09:06.155Z,100773.40
2023-02-09T11:11:51.518Z,100775.09
2023-02-09T11:14:45.484Z,100768.20
2023-02-09T11:17:27.303Z,100768.13
2023-02-09T11:20:10.138Z,100763.45
2023-02-09T11:22:57.237Z,100758.28
2023-02-09T11:25:48.609Z,100749.74
2023-02-09T11:28:45.386Z,100741.28
2023-02-09T11:31:36.437Z,100744.02
2023-02-09T11:34:42.634Z,100735.60
2023-02-09T11:37:30.394Z,100734.33
2023-02-09T11:40:18.795Z,100734.04
2023-02-09T11:43:15.596Z,100730.75
2023-02-09T11:45:58.835Z,100727.90
2023-02-09T11:48:39.375Z,100721.72
2023-02-09T11:51:20.091Z,100714.43
2023-02-09T11:53:49.510Z,100711.23
2023-02-09T11:56:20.202Z,100706.17
2023-02-09T12:01:52.514Z,100709.08
2023-02-09T12:04:26.993Z,100706.17
2023-02-09T12:07:21.622Z,100703.90
2023-02-09T12:10:00.409Z,100696.88
2023-02-09T12:12:28.792Z,100700.14
2023-02-09T12:15:34.840Z,100697.66
2023-02-09T12:18:13.536Z,100695.48
2023-02-09T12:20:54.470Z,100696.63
2023-02-09T12:23:53.575Z,100691.40
2023-02-09T12:26:41.337Z,100692.09
2023-02-09T12:29:39.104Z,100688.42
2023-02-09T12:32:08.148Z,100677.61
2023-02-09T12:34:41.314Z,100676.23
2023-02-09T12:37:18.199Z,100674.67
2023-02-09T12:40:18.509Z,100669.98
2023-02-09T12:42:56.155Z,100659.61
2023-02-09T12:45:36.311Z,100657.29
2023-02-09T12:48:11.734Z,100659.98
2023-02-09T12:50:44.289Z,100659.20
2023-02-09T12:53:28.453Z,100658.27
2023-02-09T12:56:28.285Z,100655.40
2023-02-09T12:59:14.445Z,100653.55
2023-02-09T13:02:08.230Z,100660.37
2023-02-09T13:04:52.125Z,100653.30
2023-02-09T13:07:34.194Z,100646.02
2023-02-09T13:10:36.302Z,100642.46
2023-02-09T13:16:29.860Z,100643.50
2023-02-09T13:19:48.026Z,100637.13
2023-02-09T13:22:39.819Z,100633.84
2023-02-09T13:25:34.916Z,100633.23
2023-02-09T13:28:17.238Z,100630.77
2023-02-09T13:30:47.322Z,100624.91
2023-02-09T13:34:07.336Z,100620.80
2023-02-09T13:36:47.408Z,100615.89
2023-02-09T13:39:25.004Z,100615.78
2023-02-09T13:41:54.794Z,100613.10
2023-02-09T13:44:30.773Z,100612.13
2023-02-09T13:47:07.160Z,100609.86
2023-02-09T13:49:37.888Z,100607.30
2023-02-09T13:52:33.491Z,100597.21
2023-02-09T13:55:23.474Z,100595.46
2023-02-09T13:58:18.137Z,100591.27
2023-02-09T14:04:20.919Z,100589.80
2023-02-09T14:07:01.857Z,100588.33
2023-02-09T14:09:50.980Z,100586.50
2023-02-09T14:12:55.637Z,100583.75
2023-02-09T14:15:56.782Z,100579.80
2023-02-09T14:18:29.329Z,100574.40
2023-02-09T14:21:03.761Z,100567.41
2023-02-09T14:23:35.250Z,100565.27
2023-02-09T14:29:25.485Z,100566.14
2023-02-09T14:31:57.965Z,100566.21
2023-02-09T14:34:36.076Z,100563.46
2023-02-09T14:37:23.077Z,100560.85
2023-02-09T14:40:14.206Z,100560.36
2023-02-09T14:43:26.138Z,100555.91
2023-02-09T14:46:08.431Z,100550.60
2023-02-09T14:48:37.552Z,100550.92
2023-02-09T14:51:14.025Z,100553.74
2023-02-09T14:53:43.711Z,100552.63
2023-02-09T14:56:30.689Z,100550.31
2023-02-09T14:59:05.566Z,100545.84
2023-02-09T15:01:35.065Z,100544.36
2023-02-09T15:04:03.784Z,100547.05
2023-02-09T15:06:35.156Z,100543.25
2023-02-09T15:09:23.356Z,100550.41
2023-02-09T15:12:27.021Z,100551.55
2023-02-09T15:14:58.795Z,100550.25
2023-02-09T15:17:29.479Z,100547.59
2023-02-09T15:19:58.047Z,100548.55
2023-02-09T15:25:30.460Z,100555.82
2023-02-09T15:28:00.649Z,100560.99
2023-02-09T15:30:32.408Z,100555.80
2023-02-09T15:33:03.933Z,100555.03
2023-02-09T15:35:32.368Z,100552.92
2023-02-09T15:38:01.349Z,100551.33
2023-02-09T15:40:49.810Z,100553.82
2023-02-09T15:43:38.578Z,100551.36
2023-02-09T15:46:07.582Z,100547.54
2023-02-09T15:48:37.067Z,100554.80
2023-02-09T15:51:05.450Z,100549.45
2023-02-09T15:53:34.541Z,100548.34
2023-02-09T15:56:03.037Z,100546.73
2023-02-09T15:58:36.086Z,100548.69
2023-02-09T16:01:04.999Z,100545.93
2023-02-09T16:03:33.591Z,100542.90
2023-02-09T16:06:12.309Z,100538.45
2023-02-09T16:08:40.382Z,100540.98
2023-02-09T16:11:15.741Z,100541.63
2023-02-09T16:13:51.698Z,100545.36
2023-02-09T16:16:20.197Z,100549.27
2023-02-09T16:18:48.530Z,100548.92
2023-02-09T16:21:22.329Z,100549.58
2023-02-09T16:23:52.252Z,100551.58
2023-02-09T16:26:21.110Z,100553.07
2023-02-09T16:31:57.329Z,100551.33
2023-02-09T16:34:25.805Z,100547.86
2023-02-09T16:36:53.998Z,100545.20
2023-02-09T16:39:22.471Z,100546.11
2023-02-09T16:41:51.029Z,100544.48
2023-02-09T16:44:19.644Z,100544.73
2023-02-09T16:46:50.188Z,100542.30
2023-02-09T16:49:40.658Z,100540.89
2023-02-09T16:52:17.703Z,100537.34
2023-02-09T16:54:48.766Z,100530.45
2023-02-09T16:57:19.515Z,100531.29
2023-02-09T16:59:47.893Z,100528.55
2023-02-09T17:02:28.864Z,100525.48
2023-02-09T17:05:20.761Z,100522.10
2023-02-09T17:08:22.448Z,100519.20
2023-02-09T17:10:52.046Z,100519.65
2023-02-09T17:13:23.306Z,100516.86
2023-02-09T17:18:42.542Z,100507.73
2023-02-09T17:21:27.136Z,100508.17
2023-02-09T17:23:55.383Z,100501.87
2023-02-09T17:26:24.327Z,100495.10
2023-02-09T17:28:52.891Z,100492.22
2023-02-09T17:31:26.696Z,100493.69
2023-02-09T17:34:00.034Z,100496.36
2023-02-09T17:36:29.592Z,100494.00
2023-02-09T17:38:59.193Z,100497.29
2023-02-09T17:41:32.730Z,100491.25
2023-02-09T17:44:24.309Z,100492.83
2023-02-09T17:46:57.234Z,100488.25
2023-02-09T17:49:28.447Z,100485.38
2023-02-09T17:51:56.970Z,100476.92
2023-02-09T17:54:25.505Z,100475.43
2023-02-09T17:56:53.683Z,100474.80
2023-02-09T17:59:21.817Z,100473.79
2023-02-09T18:01:50.515Z,100477.20
2023-02-09T18:04:39.703Z,100476.70
2023-02-09T18:07:09.507Z,100475.81
2023-02-09T18:09:37.650Z,100471.98
2023-02-09T18:15:29.466Z,100471.06
2023-02-09T18:17:57.914Z,100470.70
2023-02-09T18:20:33.456Z,100468.33
2023-02-09T18:23:02.864Z,100467.01
2023-02-09T18:25:49.873Z,100463.27
2023-02-09T18:28:18.522Z,100461.54
2023-02-09T18:30:46.788Z,100463.98
2023-02-09T18:33:15.114Z,100465.08
2023-02-09T18:35:44.758Z,100466.55
2023-02-09T18:38:14.090Z,100467.38
2023-02-09T18:43:31.387Z,100461.75
2023-02-09T18:46:01.221Z,100463.59
2023-02-09T18:51:33.885Z,100469.86
2023-02-09T18:54:04.600Z,100467.11
2023-02-09T18:56:32.667Z,100465.06
2023-02-09T19:04:36.154Z,100460.60
2023-02-09T19:07:06.445Z,100462.10
2023-02-09T19:09:36.444Z,100462.03
2023-02-09T19:12:08.308Z,100457.55
2023-02-09T19:14:56.754Z,100456.80
2023-02-09T19:17:25.038Z,100457.62
2023-02-09T19:19:57.199Z,100457.45
2023-02-09T19:22:25.547Z,100456.74
2023-02-09T19:24:55.829Z,100456.73
2023-02-09T19:27:26.251Z,100452.98
2023-02-09T19:29:55.831Z,100450.95
2023-02-09T19:32:24.924Z,100442.45
2023-02-09T19:34:53.713Z,100441.45
2023-02-09T19:37:22.738Z,100438.20
2023-02-09T19:40:00.503Z,100439.19
2023-02-09T19:42:45.998Z,100435.48
2023-02-09T19:45:15.185Z,100437.16
2023-02-09T19:47:44.069Z,100435.59
2023-02-09T19:50:12.350Z,100431.12
2023-02-09T19:55:29.900Z,100427.95
2023-02-09T19:57:58.120Z,100423.38
2023-02-09T20:00:26.375Z,100423.38
2023-02-09T20:02:54.722Z,100422.32
2023-02-09T20:05:23.622Z,100418.27
2023-02-09T20:07:54.558Z,100417.98
2023-02-09T20:10:24.062Z,100415.80
2023-02-09T20:12:52.152Z,100413.95
2023-02-09T20:15:24.081Z,100411.95
2023-02-09T20:17:52.564Z,100413.52
2023-02-09T20:20:20.842Z,100410.61
2023-02-09T20:22:50.549Z,100410.55
2023-02-09T20:25:19.041Z,100408.27
2023-02-09T20:27:48.862Z,100407.27
2023-02-09T20:30:17.320Z,100408.11
2023-02-09T20:35:49.096Z,100410.27
2023-02-09T20:38:17.496Z,100407.79
2023-02-09T20:40:46.435Z,100402.41
2023-02-09T20:43:51.099Z,100403.63
2023-02-09T20:46:42.329Z,100398.86
2023-02-09T20:49:12.619Z,100399.23
2023-02-09T20:51:41.113Z,100396.16
2023-02-09T20:54:09.471Z,100390.75
2023-02-09T20:56:39.611Z,100389.39
2023-02-09T20:59:08.088Z,100386.35
2023-02-09T21:01:38.416Z,100382.76
2023-02-09T21:04:07.631Z,100380.15
2023-02-09T21:06:37.441Z,100375.18
2023-02-09T21:09:06.372Z,100374.27
2023-02-09T21:11:34.866Z,100374.40
2023-02-09T21:14:03.075Z,100380.11
2023-02-09T21:16:31.442Z,100375.48
2023-02-09T21:19:00.127Z,100373.08
2023-02-09T21:21:46.121Z,100375.92
2023-02-09T21:24:14.450Z,100374.88
2023-02-09T21:26:43.100Z,100375.55
2023-02-09T21:29:12.869Z,100372.86
2023-02-09T21:31:41.558Z,100377.22
2023-02-09T21:34:20.109Z,100374.64
2023-02-09T21:36:48.790Z,100372.58
2023-02-09T21:39:17.162Z,100376.60
2023-02-09T21:42:04.028Z,100380.98
2023-02-09T21:44:32.857Z,100379.40
2023-02-09T21:47:01.337Z,100378.52
2023-02-09T21:49:31.908Z,100377.59
2023-02-09T21:52:00.454Z,100372.08
2023-02-09T21:54:33.275Z,100372.99
2023-02-09T21:57:19.126Z,100369.17
2023-02-09T21:59:47.737Z,100372.61
2023-02-09T22:02:19.396Z,100372.61
2023-02-09T22:04:47.913Z,100370.86
2023-02-09T22:07:16.334Z,100372.48
2023-02-09T22:09:45.213Z,100372.61
2023-02-09T22:12:13.727Z,100368.17
2023-02-09T22:14:41.960Z,100360.42
2023-02-09T22:17:10.336Z,100356.19
2023-02-09T22:19:38.622Z,100357.33
2023-02-09T22:22:07.091Z,100352.73
2023-02-09T22:24:36.051Z,100346.81
2023-02-09T22:27:04.767Z,100347.02
2023-02-09T22:29:34.563Z,100345.31
2023-02-09T22:32:02.885Z,100343.08
2023-02-09T22:34:31.241Z,100344.77
2023-02-09T22:37:17.124Z,100342.05
2023-02-09T22:42:32.925Z,100333.50
2023-02-09T22:45:01.139Z,100330.70
2023-02-09T22:47:29.681Z,100320.70
2023-02-09T22:52:47.624Z,100321.46
2023-02-09T22:55:15.892Z,100319.70
2023-02-09T22:57:47.882Z,100312.73
2023-02-09T23:00:17.080Z,100308.36
2023-02-09T23:02:45.470Z,100301.61
2023-02-09T23:05:13.621Z,100298.45
2023-02-09T23:07:45.495Z,100297.82
2023-02-09T23:10:13.976Z,100289.28
2023-02-09T23:12:42.761Z,100287.97
2023-02-09T23:17:57.900Z,100279.91
2023-02-09T23:20:26.086Z,100281.41
2023-02-09T23:22:56.435Z,100280.05
2023-02-09T23:25:24.941Z,100279.94
2023-02-09T23:27:53.227Z,100273.58
2023-02-09T23:30:21.615Z,100268.08
2023-02-09T23:32:54.378Z,100267.66
2023-02-09T23:35:24.384Z,100262.63
2023-02-09T23:37:52.700Z,100263.62
2023-02-09T23:40:20.956Z,100257.85
2023-02-09T23:42:53.217Z,100256.63
2023-02-09T23:45:21.384Z,100256.77
2023-02-09T23:47:49.754Z,100255.80
2023-02-09T23:50:18.639Z,100257.03
2023-02-09T23:52:47.015Z,100251.23
2023-02-09T23:55:18.267Z,100250.26
2023-02-09T23:57:48.284Z,100251.09
